sensor_id;sensor_type;location;lat;lon;timestamp;P1;durP1;ratioP1;P2;durP2;ratioP2
43901;SDS011;29562;40.390;-3.706;2023-02-01T00:09:34;15.15;;;7.70;;
43901;SDS011;29562;40.390;-3.706;2023-02-01T00:19:36;19.08;;;7.43;;
43901;SDS011;29562;40.390;-3.706;2023-02-01T00:29:39;15.30;;;8.20;;
43901;SDS011;29562;40.390;-3.706;2023-02-01T00:39:42;19.92;;;8.13;;
43901;SDS011;29562;40.390;-3.706;2023-02-01T00:49:45;14.23;;;7.13;;
43901;SDS011;29562;40.390;-3.706;2023-02-01T00:59:47;15.05;;;7.32;;
43901;SDS011;29562;40.390;-3.706;2023-02-01T01:09:50;14.50;;;7.22;;
43901;SDS011;29562;40.390;-3.706;2023-02-01T01:19:52;14.07;;;8.23;;
43901;SDS011;29562;40.390;-3.706;2023-02-01T01:29:54;12.10;;;7.03;;
43901;SDS011;29562;40.390;-3.706;2023-02-01T01:39:56;15.68;;;7.75;;
43901;SDS011;29562;40.390;-3.706;2023-02-01T01:49:58;13.35;;;6.45;;
43901;SDS011;29562;40.390;-3.706;2023-02-01T02:00:03;15.88;;;6.95;;
43901;SDS011;29562;40.390;-3.706;2023-02-01T02:10:09;11.60;;;7.32;;
43901;SDS011;29562;40.390;-3.706;2023-02-01T03:01:43;12.87;;;7.53;;
43901;SDS011;29562;40.390;-3.706;2023-02-01T03:12:14;17.10;;;7.78;;
43901;SDS011;29562;40.390;-3.706;2023-02-01T03:22:38;14.10;;;7.07;;
43901;SDS011;29562;40.390;-3.706;2023-02-01T03:32:47;11.73;;;6.85;;
43901;SDS011;29562;40.390;-3.706;2023-02-01T03:43:09;11.63;;;6.13;;
43901;SDS011;29562;40.390;-3.706;2023-02-01T03:53:20;10.98;;;6.38;;
43901;SDS011;29562;40.390;-3.706;2023-02-01T04:03:27;12.25;;;6.68;;
43901;SDS011;29562;40.390;-3.706;2023-02-01T04:13:31;11.30;;;6.32;;
43901;SDS011;29562;40.390;-3.706;2023-02-01T04:23:34;11.13;;;6.70;;
43901;SDS011;29562;40.390;-3.706;2023-02-01T04:33:39;12.40;;;6.18;;
43901;SDS011;29562;40.390;-3.706;2023-02-01T04:43:41;13.73;;;6.25;;
43901;SDS011;29562;40.390;-3.706;2023-02-01T04:53:45;11.13;;;5.93;;
43901;SDS011;29562;40.390;-3.706;2023-02-01T05:03:47;13.30;;;5.72;;
43901;SDS011;29562;40.390;-3.706;2023-02-01T05:13:49;11.20;;;6.00;;
43901;SDS011;29562;40.390;-3.706;2023-02-01T05:23:51;11.05;;;5.78;;
43901;SDS011;29562;40.390;-3.706;2023-02-01T05:34:14;14.48;;;6.18;;
43901;SDS011;29562;40.390;-3.706;2023-02-01T05:44:16;13.20;;;5.72;;
43901;SDS011;29562;40.390;-3.706;2023-02-01T05:54:18;11.00;;;5.78;;
43901;SDS011;29562;40.390;-3.706;2023-02-01T06:04:20;11.40;;;5.40;;
43901;SDS011;29562;40.390;-3.706;2023-02-01T06:14:23;8.80;;;5.25;;
43901;SDS011;29562;40.390;-3.706;2023-02-01T06:24:25;10.63;;;4.80;;
43901;SDS011;29562;40.390;-3.706;2023-02-01T06:34:27;12.73;;;6.03;;
43901;SDS011;29562;40.390;-3.706;2023-02-01T06:44:29;10.10;;;5.50;;
43901;SDS011;29562;40.390;-3.706;2023-02-01T06:54:31;13.35;;;5.07;;
43901;SDS011;29562;40.390;-3.706;2023-02-01T07:04:34;8.82;;;4.78;;
43901;SDS011;29562;40.390;-3.706;2023-02-01T07:14:36;13.25;;;4.97;;
43901;SDS011;29562;40.390;-3.706;2023-02-01T07:24:38;14.05;;;5.95;;
43901;SDS011;29562;40.390;-3.706;2023-02-01T07:34:40;7.90;;;4.60;;
43901;SDS011;29562;40.390;-3.706;2023-02-01T07:44:42;12.77;;;5.15;;
43901;SDS011;29562;40.390;-3.706;2023-02-01T07:54:44;8.93;;;4.38;;
43901;SDS011;29562;40.390;-3.706;2023-02-01T08:04:46;9.02;;;4.53;;
43901;SDS011;29562;40.390;-3.706;2023-02-01T08:14:47;10.27;;;4.70;;
43901;SDS011;29562;40.390;-3.706;2023-02-01T08:24:50;11.40;;;5.45;;
43901;SDS011;29562;40.390;-3.706;2023-02-01T08:34:52;16.98;;;5.18;;
43901;SDS011;29562;40.390;-3.706;2023-02-01T08:44:54;13.23;;;5.28;;
43901;SDS011;29562;40.390;-3.706;2023-02-01T08:54:56;12.48;;;5.18;;
43901;SDS011;29562;40.390;-3.706;2023-02-01T09:04:58;10.52;;;4.25;;
43901;SDS011;29562;40.390;-3.706;2023-02-01T09:15:00;12.68;;;4.10;;
43901;SDS011;29562;40.390;-3.706;2023-02-01T09:25:02;7.82;;;3.00;;
43901;SDS011;29562;40.390;-3.706;2023-02-01T09:35:04;3.05;;;1.33;;
43901;SDS011;29562;40.390;-3.706;2023-02-01T10:25:54;2.67;;;1.60;;
43901;SDS011;29562;40.390;-3.706;2023-02-01T10:36:05;2.47;;;1.40;;
43901;SDS011;29562;40.390;-3.706;2023-02-01T10:46:12;2.58;;;1.48;;
43901;SDS011;29562;40.390;-3.706;2023-02-01T10:56:14;2.88;;;1.48;;
43901;SDS011;29562;40.390;-3.706;2023-02-01T11:06:21;6.03;;;2.17;;
43901;SDS011;29562;40.390;-3.706;2023-02-01T11:16:28;4.72;;;2.03;;
43901;SDS011;29562;40.390;-3.706;2023-02-01T11:26:31;4.28;;;2.25;;
43901;SDS011;29562;40.390;-3.706;2023-02-01T11:36:33;3.13;;;2.10;;
43901;SDS011;29562;40.390;-3.706;2023-02-01T11:46:37;3.15;;;2.00;;
43901;SDS011;29562;40.390;-3.706;2023-02-01T12:07:05;4.38;;;1.65;;
43901;SDS011;29562;40.390;-3.706;2023-02-01T12:37:57;2.78;;;1.63;;
43901;SDS011;29562;40.390;-3.706;2023-02-01T12:48:04;3.97;;;1.90;;
43901;SDS011;29562;40.390;-3.706;2023-02-01T13:08:13;3.60;;;1.90;;
43901;SDS011;29562;40.390;-3.706;2023-02-01T13:18:19;2.75;;;1.95;;
43901;SDS011;29562;40.390;-3.706;2023-02-01T13:48:55;4.57;;;2.83;;
43901;SDS011;29562;40.390;-3.706;2023-02-01T13:58:59;4.55;;;2.50;;
43901;SDS011;29562;40.390;-3.706;2023-02-01T14:09:32;4.43;;;2.22;;
43901;SDS011;29562;40.390;-3.706;2023-02-01T14:19:35;3.25;;;1.73;;
43901;SDS011;29562;40.390;-3.706;2023-02-01T14:29:37;6.38;;;2.55;;
43901;SDS011;29562;40.390;-3.706;2023-02-01T14:49:49;8.30;;;2.30;;
43901;SDS011;29562;40.390;-3.706;2023-02-01T14:59:58;6.05;;;2.40;;
43901;SDS011;29562;40.390;-3.706;2023-02-01T15:10:01;8.50;;;3.28;;
43901;SDS011;29562;40.390;-3.706;2023-02-01T15:20:17;4.07;;;2.22;;
43901;SDS011;29562;40.390;-3.706;2023-02-01T15:30:21;6.15;;;2.90;;
43901;SDS011;29562;40.390;-3.706;2023-02-01T15:40:23;7.53;;;2.50;;
43901;SDS011;29562;40.390;-3.706;2023-02-01T15:50:26;8.38;;;3.47;;
43901;SDS011;29562;40.390;-3.706;2023-02-01T16:00:29;8.18;;;3.22;;
43901;SDS011;29562;40.390;-3.706;2023-02-01T16:10:38;8.65;;;2.78;;
43901;SDS011;29562;40.390;-3.706;2023-02-01T16:20:41;7.70;;;3.42;;
43901;SDS011;29562;40.390;-3.706;2023-02-01T16:30:43;8.80;;;3.75;;
43901;SDS011;29562;40.390;-3.706;2023-02-01T16:40:45;5.70;;;3.25;;
43901;SDS011;29562;40.390;-3.706;2023-02-01T16:50:49;12.10;;;4.45;;
43901;SDS011;29562;40.390;-3.706;2023-02-01T17:00:52;9.32;;;4.18;;
43901;SDS011;29562;40.390;-3.706;2023-02-01T17:10:54;12.30;;;4.70;;
43901;SDS011;29562;40.390;-3.706;2023-02-01T17:20:59;12.02;;;5.40;;
43901;SDS011;29562;40.390;-3.706;2023-02-01T17:31:02;10.05;;;4.40;;
43901;SDS011;29562;40.390;-3.706;2023-02-01T17:41:04;21.67;;;10.52;;
43901;SDS011;29562;40.390;-3.706;2023-02-01T17:51:25;17.17;;;5.85;;
43901;SDS011;29562;40.390;-3.706;2023-02-01T18:01:28;17.77;;;6.53;;
43901;SDS011;29562;40.390;-3.706;2023-02-01T18:11:30;17.67;;;7.65;;
43901;SDS011;29562;40.390;-3.706;2023-02-01T18:21:35;17.70;;;7.90;;
43901;SDS011;29562;40.390;-3.706;2023-02-01T18:31:43;22.48;;;9.27;;
43901;SDS011;29562;40.390;-3.706;2023-02-01T18:41:47;20.95;;;9.23;;
43901;SDS011;29562;40.390;-3.706;2023-02-01T18:51:51;23.67;;;9.82;;
43901;SDS011;29562;40.390;-3.706;2023-02-01T19:01:53;28.75;;;11.73;;
43901;SDS011;29562;40.390;-3.706;2023-02-01T19:11:55;28.45;;;11.95;;
43901;SDS011;29562;40.390;-3.706;2023-02-01T19:21:57;39.17;;;18.63;;
43901;SDS011;29562;40.390;-3.706;2023-02-01T19:31:59;30.05;;;15.45;;
43901;SDS011;29562;40.390;-3.706;2023-02-01T19:42:00;26.67;;;11.38;;
43901;SDS011;29562;40.390;-3.706;2023-02-01T19:52:02;34.03;;;11.02;;
43901;SDS011;29562;40.390;-3.706;2023-02-01T20:02:04;24.95;;;9.45;;
43901;SDS011;29562;40.390;-3.706;2023-02-01T20:12:06;10.43;;;4.68;;
43901;SDS011;29562;40.390;-3.706;2023-02-01T20:22:08;10.90;;;3.95;;
43901;SDS011;29562;40.390;-3.706;2023-02-01T20:32:10;10.45;;;3.40;;
43901;SDS011;29562;40.390;-3.706;2023-02-01T20:42:12;8.10;;;3.60;;
43901;SDS011;29562;40.390;-3.706;2023-02-01T20:52:14;8.90;;;3.58;;
43901;SDS011;29562;40.390;-3.706;2023-02-01T21:02:16;9.05;;;2.72;;
43901;SDS011;29562;40.390;-3.706;2023-02-01T21:12:18;5.30;;;2.70;;
43901;SDS011;29562;40.390;-3.706;2023-02-01T21:22:19;6.32;;;3.33;;
43901;SDS011;29562;40.390;-3.706;2023-02-01T21:32:21;9.90;;;4.82;;
43901;SDS011;29562;40.390;-3.706;2023-02-01T21:42:23;6.78;;;3.50;;
43901;SDS011;29562;40.390;-3.706;2023-02-01T21:52:26;6.93;;;2.63;;
43901;SDS011;29562;40.390;-3.706;2023-02-01T22:02:28;5.07;;;2.80;;
43901;SDS011;29562;40.390;-3.706;2023-02-01T22:12:29;9.25;;;3.40;;
43901;SDS011;29562;40.390;-3.706;2023-02-01T22:22:31;10.20;;;3.42;;
43901;SDS011;29562;40.390;-3.706;2023-02-01T22:32:33;7.70;;;3.97;;
43901;SDS011;29562;40.390;-3.706;2023-02-01T22:42:35;8.57;;;3.10;;
43901;SDS011;29562;40.390;-3.706;2023-02-01T22:52:37;9.57;;;3.58;;
43901;SDS011;29562;40.390;-3.706;2023-02-01T23:02:41;7.20;;;3.80;;
43901;SDS011;29562;40.390;-3.706;2023-02-01T23:12:47;6.65;;;3.13;;
43901;SDS011;29562;40.390;-3.706;2023-02-01T23:22:51;6.15;;;3.05;;
43901;SDS011;29562;40.390;-3.706;2023-02-01T23:32:52;7.47;;;3.38;;
43901;SDS011;29562;40.390;-3.706;2023-02-01T23:42:54;5.63;;;3.30;;
43901;SDS011;29562;40.390;-3.706;2023-02-01T23:53:15;7.43;;;3.25;;
